Terminal Aerodrome Forecast
Issued by NWS Amarillo, TX

Home | Current Version | Previous Version | Text Only | Print | Product List | Glossary On
Versions: 1 2 3 4 5 6 7 8 9 10 11 12 13 14 15 16 17 18 19 20 21
000
FTUS44 KAMA 301900 CCA
TAFDHT
TAF COR
KDHT 301951Z 3018/3118 33009KT P6SM OVC250
     FM302300 06011KT P6SM VCTS BKN050CB
     FM310200 15008KT P6SM TSRA OVC030CB
     FM310700 15008KT P6SM OVC050 PROB30 3107/3111 TSRA OVC030CB
     FM311100 35010KT P6SM BKN050=

USA.gov is the U.S. government's official web portal to all federal, state and local government web resources and services.